Badan Meteorologi, Klimatologi, dan Geofisika

CUACA TERKINI BANDARA KUALANAMU

Minggu, 22 April 2018 15:04 UTC

Cuaca : Udara kabur

Angin : (dari) Barat Daya, 5.6 km/jam

Jarak Pandang : 4.5 km

Suhu : 27 °C

Waktu Pengamatan : 22:30 WIB

Selengkapnya>>>

DATA METEOROLOGI KUALANAMU

Data Metar Terbaru

Selengkapnya>>>

Data TAF Terbaru

TAF WIMM 221100Z 2212/2312 VRB03KT 3000 BR FEW016CB SCT018 BECMG 2302/2304 03010KT 9000 SCT017 =

Selengkapnya>>>

CITRA SATELIT

Enhanced
Citra Satelit
Cloud Type
Citra Satelit IR
Hotspot
Citra Satelit
Sebaran Asap
Citra Satelit